createdAt,value
2019-06-01T00:01:36.690Z,73.64
2019-06-01T00:04:07.577Z,73.77
2019-06-01T00:06:37.004Z,74.09
2019-06-01T00:09:07.987Z,74.40
2019-06-01T00:11:37.429Z,74.13
2019-06-01T00:14:06.807Z,73.78
2019-06-01T00:16:36.243Z,73.90
2019-06-01T00:19:05.638Z,74.24
2019-06-01T00:21:35.045Z,73.96
2019-06-01T00:24:04.630Z,73.76
2019-06-01T00:26:34.043Z,73.81
2019-06-01T00:29:03.446Z,73.85
2019-06-01T00:31:32.849Z,74.05
2019-06-01T00:34:02.285Z,74.14
2019-06-01T00:36:31.680Z,74.05
2019-06-01T00:39:01.111Z,73.87
2019-06-01T00:41:30.520Z,73.82
2019-06-01T00:43:59.955Z,74.05
2019-06-01T00:46:29.349Z,74.09
2019-06-01T00:48:58.844Z,74.20
2019-06-01T00:51:28.260Z,74.42
2019-06-01T00:53:57.660Z,74.90
2019-06-01T00:56:27.064Z,75.36
2019-06-01T00:58:56.497Z,75.72
2019-06-01T01:01:25.888Z,75.91
2019-06-01T01:03:55.316Z,76.11
2019-06-01T01:06:24.708Z,75.71
2019-06-01T01:08:55.316Z,75.89
2019-06-01T01:11:24.741Z,75.64
2019-06-01T01:13:55.368Z,75.15
2019-06-01T01:16:24.756Z,75.50
2019-06-01T01:18:54.180Z,76.18
2019-06-01T01:21:23.651Z,76.75
2019-06-01T01:23:54.434Z,76.34
2019-06-01T01:26:24.144Z,75.82
2019-06-01T01:28:53.567Z,75.75
2019-06-01T01:31:22.984Z,76.03
2019-06-01T01:33:53.429Z,75.84
2019-06-01T01:36:22.881Z,75.84
2019-06-01T01:38:52.456Z,75.88
2019-06-01T01:41:21.912Z,75.98
2019-06-01T01:43:52.751Z,76.05
2019-06-01T01:46:22.304Z,76.52
2019-06-01T01:48:51.987Z,76.36
2019-06-01T01:51:21.489Z,76.09
2019-06-01T01:53:50.931Z,75.76
2019-06-01T01:56:20.324Z,75.80
2019-06-01T01:58:50.296Z,76.09
2019-06-01T02:01:22.706Z,76.36
2019-06-01T02:03:51.771Z,77.24
2019-06-01T02:06:21.665Z,77.72
2019-06-01T02:08:51.094Z,77.73
2019-06-01T02:11:20.470Z,77.89
2019-06-01T02:13:49.881Z,77.53
2019-06-01T02:16:19.288Z,77.91
2019-06-01T02:18:48.707Z,77.80
2019-06-01T02:21:18.080Z,77.73
2019-06-01T02:23:47.501Z,78.03
2019-06-01T02:26:16.901Z,77.70
2019-06-01T02:28:46.311Z,77.40
2019-06-01T02:31:15.709Z,77.29
2019-06-01T02:33:45.127Z,77.26
2019-06-01T02:36:14.529Z,77.38
2019-06-01T02:38:43.951Z,77.71
2019-06-01T02:41:13.586Z,77.99
2019-06-01T02:43:43.160Z,78.02
2019-06-01T02:46:12.643Z,78.27
2019-06-01T02:48:42.035Z,78.12
2019-06-01T02:51:11.547Z,78.36
2019-06-01T02:53:40.941Z,78.35
2019-06-01T02:56:10.345Z,78.72
2019-06-01T02:58:39.844Z,79.81
2019-06-01T03:01:38.212Z,79.78
2019-06-01T03:04:10.170Z,80.12
2019-06-01T03:06:42.555Z,80.31
2019-06-01T03:09:12.854Z,80.18
2019-06-01T03:11:42.730Z,79.73
2019-06-01T03:14:12.700Z,79.18
2019-06-01T03:16:43.780Z,79.04
2019-06-01T03:19:16.592Z,78.83
2019-06-01T03:21:47.882Z,79.68
2019-06-01T03:24:20.344Z,80.39
2019-06-01T03:26:49.746Z,80.11
2019-06-01T03:29:20.700Z,79.92
2019-06-01T03:31:50.190Z,79.75
2019-06-01T03:34:19.614Z,79.43
2019-06-01T03:36:49.072Z,78.92
2019-06-01T03:39:19.114Z,78.81
2019-06-01T03:41:48.774Z,78.86
2019-06-01T03:44:18.549Z,79.01
2019-06-01T03:46:48.037Z,78.98
2019-06-01T03:49:17.449Z,79.10
2019-06-01T03:51:46.846Z,79.08
2019-06-01T03:54:16.267Z,78.86
2019-06-01T03:56:45.678Z,78.78
2019-06-01T03:59:15.102Z,78.73
2019-06-01T04:01:47.127Z,78.56
2019-06-01T04:04:15.722Z,78.33
2019-06-01T04:06:45.124Z,78.49
2019-06-01T04:09:14.542Z,78.47
2019-06-01T04:11:44.000Z,78.54
2019-06-01T04:14:13.410Z,78.35
2019-06-01T04:16:43.105Z,77.77
2019-06-01T04:19:12.537Z,77.61
2019-06-01T04:21:41.943Z,77.45
2019-06-01T04:24:12.330Z,77.54
2019-06-01T04:26:41.952Z,77.40
2019-06-01T04:29:12.560Z,77.56
2019-06-01T04:31:42.089Z,77.69
2019-06-01T04:34:11.498Z,77.68
2019-06-01T04:36:40.897Z,77.49
2019-06-01T04:39:11.560Z,77.32
2019-06-01T04:41:41.095Z,77.22
2019-06-01T04:44:10.504Z,77.33
2019-06-01T04:46:39.913Z,77.49
2019-06-01T04:49:10.534Z,77.74
2019-06-01T04:51:40.199Z,77.28
2019-06-01T04:54:11.270Z,77.28
2019-06-01T04:56:40.700Z,77.12
2019-06-01T04:59:10.951Z,76.67
2019-06-01T05:01:40.455Z,76.47
2019-06-01T05:04:11.085Z,76.03
2019-06-01T05:06:40.578Z,75.67
2019-06-01T05:09:11.274Z,75.21
2019-06-01T05:11:40.833Z,74.92
2019-06-01T05:14:10.225Z,74.53
2019-06-01T05:16:39.744Z,74.03
2019-06-01T05:19:10.139Z,73.40
2019-06-01T05:21:39.547Z,72.66
2019-06-01T05:24:08.950Z,71.52
2019-06-01T05:26:38.343Z,70.72
2019-06-01T05:29:07.770Z,70.67
2019-06-01T05:31:37.157Z,70.08
2019-06-01T05:34:07.748Z,70.13
2019-06-01T05:36:37.145Z,69.46
2019-06-01T05:39:08.251Z,68.82
2019-06-01T05:41:37.837Z,68.32
2019-06-01T05:44:08.750Z,68.08
2019-06-01T05:46:38.253Z,67.42
2019-06-01T05:49:07.661Z,66.72
2019-06-01T05:51:37.067Z,66.02
2019-06-01T05:54:06.501Z,64.58
2019-06-01T05:56:35.888Z,63.95
2019-06-01T05:59:05.409Z,63.51
2019-06-01T06:01:34.797Z,62.61
2019-06-01T06:04:04.277Z,62.45
2019-06-01T06:06:33.674Z,62.01
2019-06-01T06:09:04.029Z,61.36
2019-06-01T06:11:33.420Z,60.45
2019-06-01T06:14:03.199Z,59.09
2019-06-01T06:16:32.653Z,58.52
2019-06-01T06:19:02.166Z,58.16
2019-06-01T06:21:31.656Z,57.04
2019-06-01T06:24:01.070Z,57.31
2019-06-01T06:26:30.460Z,57.47
2019-06-01T06:28:59.882Z,57.37
2019-06-01T06:31:29.275Z,57.37
2019-06-01T06:33:58.893Z,57.19
2019-06-01T06:36:28.283Z,57.93
2019-06-01T06:38:57.803Z,56.71
2019-06-01T06:41:27.194Z,55.92
2019-06-01T06:43:56.595Z,55.65
2019-06-01T06:46:26.002Z,56.33
2019-06-01T06:48:55.399Z,56.02
2019-06-01T06:51:25.541Z,55.67
2019-06-01T06:53:54.975Z,55.06
2019-06-01T06:56:24.533Z,55.59
2019-06-01T06:58:53.946Z,55.86
2019-06-01T07:01:23.348Z,52.36
2019-06-01T07:03:52.755Z,51.54
2019-06-01T07:06:22.141Z,51.24
2019-06-01T07:08:51.557Z,51.52
2019-06-01T07:11:21.193Z,52.22
2019-06-01T07:13:50.735Z,52.42
2019-06-01T07:16:21.361Z,52.15
2019-06-01T07:18:50.824Z,52.22
2019-06-01T07:21:21.547Z,51.05
2019-06-01T07:23:51.043Z,51.98
2019-06-01T07:26:20.454Z,52.21
2019-06-01T07:28:49.839Z,52.43
2019-06-01T07:31:20.096Z,51.28
2019-06-01T07:33:49.519Z,52.42
2019-06-01T07:36:20.168Z,52.12
2019-06-01T07:38:49.716Z,51.15
2019-06-01T07:41:20.554Z,51.73
2019-06-01T07:43:50.073Z,51.96
2019-06-01T07:46:20.770Z,51.88
2019-06-01T07:48:52.993Z,51.06
2019-06-01T07:51:23.206Z,50.49
2019-06-01T07:53:52.749Z,52.25
2019-06-01T07:56:22.596Z,49.21
2019-06-01T07:58:52.057Z,48.81
2019-06-01T08:01:24.571Z,49.95
2019-06-01T08:03:52.618Z,48.62
2019-06-01T08:06:23.805Z,48.47
2019-06-01T08:08:53.237Z,48.61
2019-06-01T08:11:25.391Z,48.12
2019-06-01T08:13:53.772Z,47.36
2019-06-01T08:16:23.658Z,46.01
2019-06-01T08:18:53.549Z,45.41
2019-06-01T08:21:23.993Z,44.51
2019-06-01T08:23:53.455Z,44.62
2019-06-01T08:26:24.304Z,41.76
2019-06-01T08:28:53.851Z,41.63
2019-06-01T08:31:24.448Z,39.69
2019-06-01T08:33:54.061Z,38.39
2019-06-01T08:36:23.454Z,38.21
2019-06-01T08:38:52.875Z,39.33
2019-06-01T08:41:23.381Z,39.33
2019-06-01T08:43:52.933Z,39.49
2019-06-01T08:46:23.580Z,37.99
2019-06-01T08:48:53.138Z,37.01
2019-06-01T08:51:23.862Z,34.71
2019-06-01T08:53:53.320Z,32.91
2019-06-01T08:56:24.117Z,32.71
2019-06-01T08:58:53.621Z,32.24
2019-06-01T09:01:24.427Z,32.72
2019-06-01T09:03:53.877Z,32.18
2019-06-01T09:06:24.743Z,31.48
2019-06-01T09:08:54.157Z,30.55
2019-06-01T09:11:24.984Z,30.67
2019-06-01T09:13:54.529Z,30.27
2019-06-01T09:16:25.338Z,29.44
2019-06-01T09:18:55.018Z,29.70
2019-06-01T09:21:25.375Z,30.85
2019-06-01T09:23:54.829Z,30.10
2019-06-01T09:26:26.170Z,28.34
2019-06-01T09:28:55.348Z,28.84
2019-06-01T09:31:26.160Z,27.86
2019-06-01T09:33:55.733Z,27.47
2019-06-01T09:36:26.123Z,26.91
2019-06-01T09:38:55.525Z,26.56
2019-06-01T09:41:26.343Z,25.15
2019-06-01T09:43:55.901Z,24.59
2019-06-01T09:46:25.327Z,22.86
2019-06-01T09:48:54.827Z,21.24
2019-06-01T09:51:24.265Z,20.70
2019-06-01T09:53:53.761Z,18.87
2019-06-01T09:56:23.272Z,18.17
2019-06-01T09:58:52.768Z,17.46
2019-06-01T10:01:22.169Z,16.35
2019-06-01T10:03:51.675Z,16.41
2019-06-01T10:06:21.173Z,17.23
2019-06-01T10:08:50.682Z,16.54
2019-06-01T10:11:20.092Z,16.33
2019-06-01T10:13:49.509Z,16.00
2019-06-01T10:16:18.938Z,15.38
2019-06-01T10:18:48.328Z,14.60
2019-06-01T10:21:17.817Z,15.65
2019-06-01T10:23:49.710Z,14.12
2019-06-01T10:26:18.340Z,14.62
2019-06-01T10:28:47.747Z,15.18
2019-06-01T10:31:17.180Z,14.06
2019-06-01T10:33:46.556Z,13.22
2019-06-01T10:36:20.838Z,13.11
2019-06-01T10:38:47.180Z,12.29
2019-06-01T10:41:16.583Z,11.87
2019-06-01T10:43:45.994Z,12.58
2019-06-01T10:46:15.407Z,13.19
2019-06-01T10:48:44.797Z,12.76
2019-06-01T10:51:14.235Z,12.44
2019-06-01T10:53:43.860Z,11.42
2019-06-01T10:56:13.328Z,12.43
2019-06-01T10:58:58.801Z,12.43
2019-06-01T11:01:13.920Z,11.83
2019-06-01T11:03:43.339Z,10.53
2019-06-01T11:06:12.762Z,10.67
2019-06-01T11:08:43.193Z,10.87
2019-06-01T11:11:12.694Z,10.47
2019-06-01T11:13:43.266Z,10.01
2019-06-01T11:16:12.952Z,10.12
2019-06-01T11:18:43.611Z,10.66
2019-06-01T11:21:13.054Z,10.86
2019-06-01T11:23:45.055Z,11.84
2019-06-01T11:26:13.610Z,11.06
2019-06-01T11:28:44.373Z,10.16
2019-06-01T11:31:13.903Z,9.75
2019-06-01T11:33:44.266Z,10.72
2019-06-01T11:36:13.907Z,10.22
2019-06-01T11:38:44.671Z,11.82
2019-06-01T11:41:18.356Z,10.97
2019-06-01T11:43:46.092Z,10.68
2019-06-01T11:46:15.617Z,10.33
2019-06-01T11:48:45.424Z,10.42
2019-06-01T11:51:14.897Z,11.31
2019-06-01T11:53:45.711Z,10.58
2019-06-01T11:56:15.360Z,10.57
2019-06-01T11:58:45.644Z,10.22
2019-06-01T12:01:17.112Z,11.23
2019-06-01T12:03:48.235Z,10.58
2019-06-01T12:06:17.653Z,10.95
2019-06-01T12:08:47.757Z,10.84
2019-06-01T12:11:17.247Z,10.92
2019-06-01T12:13:46.665Z,11.57
2019-06-01T12:16:16.051Z,12.15
2019-06-01T12:18:46.756Z,12.51
2019-06-01T12:21:16.679Z,11.48
2019-06-01T12:23:47.463Z,12.31
2019-06-01T12:26:17.071Z,13.96
2019-06-01T12:28:47.870Z,15.37
2019-06-01T12:31:17.380Z,15.09
2019-06-01T12:33:46.785Z,16.35
2019-06-01T12:36:16.359Z,18.14
2019-06-01T12:38:54.928Z,19.56
2019-06-01T12:41:24.457Z,21.37
2019-06-01T12:44:10.690Z,21.76
2019-06-01T12:46:40.279Z,22.78
2019-06-01T12:49:09.848Z,23.93
2019-06-01T12:51:40.534Z,22.95
2019-06-01T12:54:10.296Z,22.68
2019-06-01T12:56:40.701Z,22.93
2019-06-01T12:59:10.286Z,23.04
2019-06-01T13:01:40.949Z,23.86
2019-06-01T13:04:10.393Z,24.53
2019-06-01T13:06:40.743Z,24.17
2019-06-01T13:09:10.273Z,24.89
2019-06-01T13:11:41.191Z,24.85
2019-06-01T13:14:10.686Z,24.96
2019-06-01T13:16:43.926Z,24.17
2019-06-01T13:19:11.256Z,24.79
2019-06-01T13:21:41.379Z,25.66
2019-06-01T13:24:10.918Z,24.97
2019-06-01T13:26:41.645Z,25.56
2019-06-01T13:29:11.202Z,26.96
2019-06-01T13:31:41.945Z,26.89
2019-06-01T13:34:11.504Z,26.38
2019-06-01T13:36:40.911Z,25.27
2019-06-01T13:39:11.532Z,25.37
2019-06-01T13:41:40.923Z,25.92
2019-06-01T13:44:10.349Z,24.98
2019-06-01T13:46:39.816Z,25.86
2019-06-01T13:49:09.239Z,25.41
2019-06-01T13:51:38.647Z,24.98
2019-06-01T13:54:08.177Z,26.11
2019-06-01T13:56:37.576Z,26.75
2019-06-01T13:59:06.979Z,26.12
2019-06-01T14:01:36.376Z,25.97
2019-06-01T14:04:06.348Z,25.80
2019-06-01T14:06:35.809Z,26.00
2019-06-01T14:09:07.147Z,26.30
2019-06-01T14:11:36.553Z,26.33
2019-06-01T14:14:05.974Z,26.79
2019-06-01T14:16:35.419Z,27.45
2019-06-01T14:19:07.011Z,27.22
2019-06-01T14:21:36.267Z,27.66
2019-06-01T14:24:05.839Z,26.67
2019-06-01T14:26:35.281Z,26.18
2019-06-01T14:29:05.349Z,25.78
2019-06-01T14:31:34.780Z,26.72
2019-06-01T14:34:04.416Z,26.61
2019-06-01T14:36:33.830Z,27.92
2019-06-01T14:39:03.243Z,27.31
2019-06-01T14:41:32.643Z,26.47
2019-06-01T14:44:02.071Z,27.20
2019-06-01T14:46:31.452Z,27.12
2019-06-01T14:49:00.947Z,26.06
2019-06-01T14:51:31.776Z,27.37
2019-06-01T14:54:01.273Z,26.70
2019-06-01T14:56:30.671Z,27.06
2019-06-01T14:59:02.209Z,28.43
2019-06-01T15:01:32.950Z,26.10
2019-06-01T15:04:02.356Z,26.45
2019-06-01T15:06:31.753Z,26.43
2019-06-01T15:09:15.355Z,25.58
2019-06-01T15:11:32.280Z,26.20
2019-06-01T15:14:01.698Z,26.16
2019-06-01T15:16:31.090Z,26.75
2019-06-01T15:19:00.508Z,26.15
2019-06-01T15:21:31.338Z,27.25
2019-06-01T15:24:00.772Z,27.29
2019-06-01T15:26:30.178Z,26.94
2019-06-01T15:28:59.595Z,26.86
2019-06-01T15:31:28.996Z,27.77
2019-06-01T15:33:59.416Z,27.98
2019-06-01T15:36:28.900Z,30.96
2019-06-01T15:38:59.794Z,29.43
2019-06-01T15:41:29.260Z,28.71
2019-06-01T15:43:59.172Z,29.02
2019-06-01T15:46:28.626Z,27.81
2019-06-01T15:48:58.214Z,28.18
2019-06-01T15:51:27.602Z,29.16
2019-06-01T15:53:57.060Z,27.69
2019-06-01T15:56:26.471Z,27.79
2019-06-01T15:58:58.143Z,27.75
2019-06-01T16:01:26.979Z,26.68
2019-06-01T16:03:57.269Z,27.08
2019-06-01T16:06:26.931Z,27.89
2019-06-01T16:08:57.231Z,28.43
2019-06-01T16:11:27.117Z,27.94
2019-06-01T16:13:57.648Z,29.29
2019-06-01T16:16:27.072Z,29.60
2019-06-01T16:19:00.834Z,29.31
2019-06-01T16:21:27.581Z,30.80
2019-06-01T16:23:58.213Z,30.13
2019-06-01T16:26:27.689Z,30.66
2019-06-01T16:28:58.344Z,29.07
2019-06-01T16:31:27.883Z,28.34
2019-06-01T16:33:58.505Z,29.32
2019-06-01T16:36:27.975Z,28.66
2019-06-01T16:39:02.729Z,29.37
2019-06-01T16:41:28.477Z,30.93
2019-06-01T16:43:57.909Z,30.49
2019-06-01T16:46:27.307Z,30.32
2019-06-01T16:48:57.498Z,30.60
2019-06-01T16:51:26.904Z,30.52
2019-06-01T16:53:56.309Z,30.12
2019-06-01T16:56:25.720Z,30.19
2019-06-01T16:58:55.992Z,30.17
2019-06-01T17:01:25.456Z,30.37
2019-06-01T17:03:54.859Z,30.41
2019-06-01T17:06:24.275Z,29.63
2019-06-01T17:08:53.668Z,29.15
2019-06-01T17:11:23.080Z,30.44
2019-06-01T17:13:52.647Z,31.04
2019-06-01T17:16:22.150Z,31.04
2019-06-01T17:18:51.540Z,30.74
2019-06-01T17:21:20.945Z,31.69
2019-06-01T17:23:50.368Z,31.69
2019-06-01T17:26:19.779Z,31.67
2019-06-01T17:28:49.275Z,31.63
2019-06-01T17:31:18.689Z,31.38
2019-06-01T17:33:48.078Z,31.79
2019-06-01T17:36:17.808Z,31.12
2019-06-01T17:38:47.492Z,32.70
2019-06-01T17:41:16.908Z,32.59
2019-06-01T17:43:46.389Z,32.59
2019-06-01T17:46:15.820Z,31.95
2019-06-01T17:48:45.228Z,31.90
2019-06-01T17:51:14.706Z,31.90
2019-06-01T17:53:44.272Z,32.44
2019-06-01T17:56:13.828Z,32.35
2019-06-01T17:58:43.301Z,32.45
2019-06-01T18:01:12.879Z,31.60
2019-06-01T18:03:42.363Z,31.93
2019-06-01T18:06:12.885Z,31.75
2019-06-01T18:08:42.580Z,31.76
2019-06-01T18:11:12.250Z,31.76
2019-06-01T18:13:41.670Z,31.74
2019-06-01T18:16:13.039Z,31.88
2019-06-01T18:18:42.210Z,32.47
2019-06-01T18:21:12.966Z,32.95
2019-06-01T18:23:44.002Z,33.46
2019-06-01T18:26:13.593Z,33.16
2019-06-01T18:28:43.003Z,33.21
2019-06-01T18:31:12.866Z,33.98
2019-06-01T18:33:42.361Z,33.11
2019-06-01T18:36:11.852Z,34.18
2019-06-01T18:38:41.345Z,34.15
2019-06-01T18:41:18.552Z,34.85
2019-06-01T18:43:41.862Z,34.96
2019-06-01T18:46:12.215Z,34.96
2019-06-01T18:48:41.675Z,35.63
2019-06-01T18:51:12.341Z,37.31
2019-06-01T18:53:41.867Z,37.38
2019-06-01T18:56:12.272Z,37.50
2019-06-01T18:58:41.770Z,37.61
2019-06-01T19:01:12.466Z,41.03
2019-06-01T19:03:41.962Z,42.67
2019-06-01T19:06:11.697Z,44.21
2019-06-01T19:08:41.129Z,45.08
2019-06-01T19:11:28.296Z,45.49
2019-06-01T19:13:41.777Z,42.73
2019-06-01T19:16:12.208Z,42.48
2019-06-01T19:18:41.571Z,42.81
2019-06-01T19:21:10.986Z,45.52
2019-06-01T19:23:40.385Z,46.18
2019-06-01T19:26:12.294Z,47.54
2019-06-01T19:28:40.918Z,48.84
2019-06-01T19:31:11.181Z,49.72
2019-06-01T19:33:40.892Z,50.81
2019-06-01T19:36:11.062Z,50.92
2019-06-01T19:38:41.725Z,50.84
2019-06-01T19:41:11.340Z,50.69
2019-06-01T19:43:40.812Z,50.39
2019-06-01T19:46:10.230Z,49.20
2019-06-01T19:48:39.650Z,48.84
2019-06-01T19:51:10.589Z,47.67
2019-06-01T19:53:40.192Z,46.50
2019-06-01T19:56:10.739Z,48.14
2019-06-01T19:58:40.176Z,46.46
2019-06-01T20:01:10.148Z,45.21
2019-06-01T20:03:39.575Z,45.02
2019-06-01T20:06:08.996Z,45.49
2019-06-01T20:08:38.451Z,46.05
2019-06-01T20:11:07.938Z,47.58
2019-06-01T20:13:37.353Z,46.98
2019-06-01T20:16:06.769Z,45.74
2019-06-01T20:18:36.160Z,47.16
2019-06-01T20:21:05.671Z,47.67
2019-06-01T20:23:35.060Z,46.91
2019-06-01T20:26:04.708Z,46.57
2019-06-01T20:28:34.232Z,47.69
2019-06-01T20:31:03.774Z,47.62
2019-06-01T20:33:33.181Z,47.22
2019-06-01T20:36:02.595Z,48.53
2019-06-01T20:38:32.810Z,49.65
2019-06-01T20:41:02.213Z,47.93
2019-06-01T20:43:31.710Z,49.17
2019-06-01T20:46:01.133Z,48.31
2019-06-01T20:48:30.545Z,49.48
2019-06-01T20:51:00.041Z,49.64
2019-06-01T20:53:29.443Z,49.74
2019-06-01T20:55:58.854Z,49.79
2019-06-01T20:58:28.243Z,48.75
2019-06-01T21:00:58.379Z,49.47
2019-06-01T21:03:27.975Z,49.46
2019-06-01T21:05:57.367Z,49.50
2019-06-01T21:08:26.761Z,49.58
2019-06-01T21:10:56.179Z,50.16
2019-06-01T21:13:25.560Z,51.93
2019-06-01T21:15:54.983Z,52.56
2019-06-01T21:18:25.190Z,53.55
2019-06-01T21:20:54.830Z,54.18
2019-06-01T21:23:25.306Z,54.46
2019-06-01T21:25:54.853Z,55.12
2019-06-01T21:28:25.815Z,55.58
2019-06-01T21:30:55.666Z,55.47
2019-06-01T21:33:28.504Z,55.68
2019-06-01T21:35:57.276Z,55.90
2019-06-01T21:38:26.855Z,55.97
2019-06-01T21:40:58.708Z,55.60
2019-06-01T21:43:34.523Z,55.38
2019-06-01T21:46:00.675Z,55.37
2019-06-01T21:48:30.178Z,54.69
2019-06-01T21:50:59.627Z,54.18
2019-06-01T21:53:29.020Z,53.82
2019-06-01T21:55:58.445Z,53.93
2019-06-01T21:58:27.875Z,54.14
2019-06-01T22:00:57.467Z,53.87
2019-06-01T22:03:27.383Z,53.91
2019-06-01T22:05:56.971Z,53.89
2019-06-01T22:08:27.514Z,54.20
2019-06-01T22:10:57.227Z,54.49
2019-06-01T22:13:27.565Z,55.25
2019-06-01T22:15:57.820Z,55.90
2019-06-01T22:18:27.931Z,56.32
2019-06-01T22:20:57.446Z,57.00
2019-06-01T22:23:28.045Z,57.71
2019-06-01T22:25:57.664Z,57.95
2019-06-01T22:28:28.468Z,58.54
2019-06-01T22:30:58.148Z,58.55
2019-06-01T22:33:28.632Z,58.54
2019-06-01T22:35:58.324Z,58.83
2019-06-01T22:38:27.911Z,59.06
2019-06-01T22:40:57.316Z,59.22
2019-06-01T22:43:43.459Z,59.30
2019-06-01T22:45:57.832Z,59.67
2019-06-01T22:48:27.221Z,59.68
2019-06-01T22:50:56.760Z,59.78
2019-06-01T22:53:26.305Z,59.86
2019-06-01T22:55:55.751Z,60.23
2019-06-01T22:58:25.360Z,60.24
2019-06-01T23:00:54.862Z,60.65
2019-06-01T23:03:24.271Z,60.63
2019-06-01T23:05:53.689Z,60.91
2019-06-01T23:08:24.089Z,61.09
2019-06-01T23:10:54.479Z,61.72
2019-06-01T23:13:24.182Z,62.12
2019-06-01T23:15:53.623Z,62.57
2019-06-01T23:18:23.582Z,62.35
2019-06-01T23:20:53.206Z,62.49
2019-06-01T23:23:23.894Z,62.53
2019-06-01T23:25:53.459Z,62.80
2019-06-01T23:28:24.059Z,62.85
2019-06-01T23:30:53.655Z,62.92
2019-06-01T23:33:23.335Z,63.00
2019-06-01T23:35:52.734Z,63.24
2019-06-01T23:38:22.578Z,63.38
2019-06-01T23:40:52.024Z,63.73
2019-06-01T23:43:22.611Z,63.79
2019-06-01T23:45:52.114Z,64.05
2019-06-01T23:48:21.523Z,64.08
2019-06-01T23:50:50.921Z,64.18
2019-06-01T23:53:20.321Z,64.22
2019-06-01T23:55:49.715Z,64.08
2019-06-01T23:58:19.129Z,64.15
